Glasgow, United Kingdom

2:47 PM GMT on February 10, 2016 (GMT +0000)
Glasgow | | Change Station
CLOSE
Current Station
Airport
Location: Glasgow,
Elevation: 26 ft
Nearby Weather Stations

Elev 26 ft 55.87 °N, 4.43 °W | Updated 27 minutes ago

Mostly Cloudy
Mostly Cloudy
43 °F
Feels Like 36 °F
N
13
Wind Variable Wind from WNW

Today
High -- | Low -- °F
--% Chance of Precip.
Yesterday
High -- | Low -- °F
Precip. -- in
Pressure 29.42 in
Visibility 6.2 miles
Clouds Scattered Clouds 2200 ft
Mostly Cloudy 3500 ft
Windchill 36 °F
Dew Point 34 °F
Humidity 70%
Rainfall 0.00 in
Snow Depth Not available.
7:55 AM 5:09 PM
Waxing Crescent, 5% visible
METAR EGPF 101420Z AUTO 30011KT 9999 SCT022 BKN035 06/01 Q0996
Pressure 29.42 in
Visibility 6.2 miles
Clouds Scattered Clouds 2200 ft
Mostly Cloudy 3500 ft
Windchill 36 °F
Dew Point 34 °F
Humidity 70%
Rainfall 0.00 in
Snow Depth Not available.
7:55 AM 5:09 PM
Waxing Crescent, 5% visible
METAR EGPF 101420Z AUTO 30011KT 9999 SCT022 BKN035 06/01 Q0996

10-Day Weather Forecast

Almanac

Astronomy

Feb. 10, 2016 Rise Set
Actual Time
Civil Twilight
Nautical Twilight
Astronomical Twilight
Moon
Length of Visible Light
Length of Day
Tomorrow will be .
, % of the Moon is Illuminated

Today's Extremes

Country Highs Country Lows

Community

WunderPhotos

Upload Photos

1,891,854 photos uploaded!

WunderBlog® & News

Nearby

Air Quality

  Air Quality AQ Index Pollutant
Not available.

Snow Depth

Station Depth Elevation

Earthquake Activity

City Distance Mag. Time & Date
Minimum magnitude displayed is 2.5.

Coastal Water Temperatures

Place Temperature

Stations

Nearby Weather Stations

Station Location Temp. Windchill Dew Point Humidity Wind Precip. Elev Updated Type